Rhourd El Adra — 7TBS — position and weather

sailwx.info

Track history (hours):
 
Tides and Currents Weather Stations Pressure Air Temp Water Temp Dewpoint Dewpoint Depression Visibility Wind Speed Wind Dir Waves Ship Positions

Rhourd El Adra

Last reported at 2015-May-24 19:33 UTC. Time now 2015-May-25 19:28 UTC.
Position N 42°32' E 008°19'.

Length 156 m; draft 7.2 m.

Type: Ship (hazmat cat C). MMSI: 605026210.

Date/timePositionNaut miles runAvg speedWind from/ knotsBaromVisibWave heightAir tempDewpointWater temp
2015-May-24 19:33N 42°32' E 008°19'3013.6
2015-May-24 17:23N 42°57' E 008°41'1313.5
2015-May-24 16:24N 43°08' E 008°52'7 8.0
2015-May-24 15:33N 43°11' E 008°60'1413.6
2015-May-24 14:33N 43°20' E 009°14'1312.7
2015-May-24 13:33N 43°25' E 009°30'1414.1
2015-May-24 12:33N 43°11' E 009°35'22715.1
2015-May-23 21:33N 40°37' E 013°17'1715.8
2015-May-23 20:30N 40°34' E 013°38'1515.6
2015-May-23 19:33N 40°34' E 013°58'1615.6
2015-May-23 18:33N 40°44' E 014°13'7 0.2
2015-May-22 12:26N 40°50' E 014°18'0 0.0
2015-May-21 08:29N 40°50' E 014°18'2 2.7
2015-May-21 07:33N 40°48' E 014°18'2 2.5
2015-May-21 06:33N 40°45' E 014°18'1 0.6
2015-May-21 05:33N 40°46' E 014°17'1 1.5
2015-May-21 04:33N 40°47' E 014°17'6 6.3
2015-May-21 03:33N 40°43' E 014°11'1313.4
2015-May-21 02:33N 40°34' E 013°58'1413.8
2015-May-21 01:33N 40°28' E 013°42'1413.6
2015-May-21 00:30N 40°21' E 013°25'18213.1
2015-May-20 10:33N 38°56' E 009°56'1515.3
2015-May-20 09:33N 38°49' E 009°38'1515.2
2015-May-20 08:33N 38°42' E 009°21'2015.1
2015-May-20 07:13N 38°33' E 008°57'1015.2
2015-May-20 06:32N 38°29' E 008°45'1515.0
2015-May-20 05:33N 38°23' E 008°28'209 9.3
2015-May-19 07:13N 37°06' E 004°23'2615.5
2015-May-19 05:32N 37°06' E 003°50'1515.4
2015-May-19 04:32N 37°03' E 003°31'1815.8
2015-May-19 03:24N 37°01' E 003°09'1315.5
2015-May-19 02:33N 36°58' E 002°53'1515.4
2015-May-19 01:33N 36°55' E 002°34'1715.3
2015-May-19 00:24N 36°52' E 002°12'1314.9
2015-May-18 23:33N 36°50' E 001°56'1514.7
2015-May-18 22:31N 36°47' E 001°38'1414.7
2015-May-18 21:33N 36°44' E 001°20'1515.0
2015-May-18 20:33N 36°39' E 001°03'1514.9
2015-May-18 19:33N 36°32' E 000°46'1414.5
2015-May-18 18:34N 36°26' E 000°30'1414.2
2015-May-18 17:34N 36°19' E 000°14'1414.3
2015-May-18 16:34N 36°11' E 000°01'1414.0
2015-May-18 15:33N 35°60' W 000°10'14 0.4
2015-May-17 07:09N 36°13' W 000°07'0 0.5
2015-May-17 06:28N 36°13' W 000°07'3 0.9
2015-May-17 02:29N 36°11' W 000°04'5 5.0
2015-May-17 01:33N 36°07' W 000°01'26013.7
2015-May-16 06:34N 35°58' W 005°22'1917.0
2015-May-16 05:27N 35°53' W 005°45'4415.0
2015-May-16 02:32N 35°27' W 006°28'9715.0
2015-May-15 20:04N 34°13' W 007°44'6912.5
2015-May-15 14:33N 33°21' W 008°38'1110.7
2015-May-15 13:33N 33°11' W 008°43'5 5.2
2015-May-15 12:30N 33°08' W 008°37'0 0.0
2015-May-15 11:30N 33°08' W 008°37'0 0.0
2015-May-15 08:06N 33°08' W 008°37'0 0.0
2015-May-15 05:24N 33°08' W 008°37'  
Track history (hours):
 
Tides and Currents Weather Stations Pressure Air Temp Water Temp Dewpoint Dewpoint Depression Visibility Wind Speed Wind Dir Waves Ship Positions

Rhourd El Adra

Last reported at 2015-May-24 19:33 UTC. Time now 2015-May-25 19:28 UTC.
Position N 42°32' E 008°19'.

Length 156 m; draft 7.2 m.

Type: Ship (hazmat cat C). MMSI: 605026210.

Date/timePositionNaut miles runAvg speedWind from/ knotsBaromVisibWave heightAir tempDewpointWater temp
2015-May-24 19:33N 42°32' E 008°19'3013.6
2015-May-24 17:23N 42°57' E 008°41'1313.5
2015-May-24 16:24N 43°08' E 008°52'7 8.0
2015-May-24 15:33N 43°11' E 008°60'1413.6
2015-May-24 14:33N 43°20' E 009°14'1312.7
2015-May-24 13:33N 43°25' E 009°30'1414.1
2015-May-24 12:33N 43°11' E 009°35'22715.1
2015-May-23 21:33N 40°37' E 013°17'1715.8
2015-May-23 20:30N 40°34' E 013°38'1515.6
2015-May-23 19:33N 40°34' E 013°58'1615.6
2015-May-23 18:33N 40°44' E 014°13'7 0.2
2015-May-22 12:26N 40°50' E 014°18'0 0.0
2015-May-21 08:29N 40°50' E 014°18'2 2.7
2015-May-21 07:33N 40°48' E 014°18'2 2.5
2015-May-21 06:33N 40°45' E 014°18'1 0.6
2015-May-21 05:33N 40°46' E 014°17'1 1.5
2015-May-21 04:33N 40°47' E 014°17'6 6.3
2015-May-21 03:33N 40°43' E 014°11'1313.4
2015-May-21 02:33N 40°34' E 013°58'1413.8
2015-May-21 01:33N 40°28' E 013°42'1413.6
2015-May-21 00:30N 40°21' E 013°25'18213.1
2015-May-20 10:33N 38°56' E 009°56'1515.3
2015-May-20 09:33N 38°49' E 009°38'1515.2
2015-May-20 08:33N 38°42' E 009°21'2015.1
2015-May-20 07:13N 38°33' E 008°57'1015.2
2015-May-20 06:32N 38°29' E 008°45'1515.0
2015-May-20 05:33N 38°23' E 008°28'209 9.3
2015-May-19 07:13N 37°06' E 004°23'2615.5
2015-May-19 05:32N 37°06' E 003°50'1515.4
2015-May-19 04:32N 37°03' E 003°31'1815.8
2015-May-19 03:24N 37°01' E 003°09'1315.5
2015-May-19 02:33N 36°58' E 002°53'1515.4
2015-May-19 01:33N 36°55' E 002°34'1715.3
2015-May-19 00:24N 36°52' E 002°12'1314.9
2015-May-18 23:33N 36°50' E 001°56'1514.7
2015-May-18 22:31N 36°47' E 001°38'1414.7
2015-May-18 21:33N 36°44' E 001°20'1515.0
2015-May-18 20:33N 36°39' E 001°03'1514.9
2015-May-18 19:33N 36°32' E 000°46'1414.5
2015-May-18 18:34N 36°26' E 000°30'1414.2
2015-May-18 17:34N 36°19' E 000°14'1414.3
2015-May-18 16:34N 36°11' E 000°01'1414.0
2015-May-18 15:33N 35°60' W 000°10'14 0.4
2015-May-17 07:09N 36°13' W 000°07'0 0.5
2015-May-17 06:28N 36°13' W 000°07'3 0.9
2015-May-17 02:29N 36°11' W 000°04'5 5.0
2015-May-17 01:33N 36°07' W 000°01'26013.7
2015-May-16 06:34N 35°58' W 005°22'1917.0
2015-May-16 05:27N 35°53' W 005°45'4415.0
2015-May-16 02:32N 35°27' W 006°28'9715.0
2015-May-15 20:04N 34°13' W 007°44'6912.5
2015-May-15 14:33N 33°21' W 008°38'1110.7
2015-May-15 13:33N 33°11' W 008°43'5 5.2
2015-May-15 12:30N 33°08' W 008°37'0 0.0
2015-May-15 11:30N 33°08' W 008°37'0 0.0
2015-May-15 08:06N 33°08' W 008°37'0 0.0
2015-May-15 05:24N 33°08' W 008°37'  

Dump ship's entire track history